createdAt,value
2023-03-28T00:13:19.668Z,969.39
2023-03-28T00:28:21.305Z,969.3
2023-03-28T00:43:22.952Z,969.24
2023-03-28T00:58:24.583Z,969.05
2023-03-28T01:13:26.210Z,969.02
2023-03-28T01:28:27.956Z,968.88
2023-03-28T01:43:29.605Z,968.93
2023-03-28T01:58:31.245Z,968.92
2023-03-28T02:13:32.896Z,968.94
2023-03-28T02:28:34.556Z,969.08
2023-03-28T02:43:36.178Z,969.17
2023-03-28T02:58:37.847Z,969.31
2023-03-28T03:13:39.496Z,969.62
2023-03-28T03:28:41.139Z,969.76
2023-03-28T03:43:43.866Z,969.97
2023-03-28T03:58:46.374Z,970.11
2023-03-28T04:13:48.051Z,970.18
2023-03-28T04:28:49.737Z,970.17
2023-03-28T04:43:51.439Z,970.11
2023-03-28T04:58:53.108Z,970.08
2023-03-28T05:13:54.743Z,970.12
2023-03-28T05:28:56.375Z,970.08
2023-03-28T05:43:58.051Z,970.16
2023-03-28T05:58:59.729Z,970.25
2023-03-28T06:14:01.380Z,970.16
2023-03-28T06:29:03.016Z,970.05
2023-03-28T06:44:04.664Z,970
2023-03-28T06:59:06.339Z,970.05
2023-03-28T07:14:07.994Z,969.99
2023-03-28T07:29:09.655Z,969.98
2023-03-28T07:44:11.291Z,970.05
2023-03-28T07:59:12.927Z,969.96
2023-03-28T08:14:14.566Z,969.91
2023-03-28T08:29:16.171Z,969.85
2023-03-28T08:44:17.814Z,969.77
2023-03-28T08:59:19.485Z,969.72
2023-03-28T09:14:21.137Z,969.79
2023-03-28T09:29:22.829Z,969.7
2023-03-28T09:44:24.565Z,969.65
2023-03-28T09:59:27.819Z,969.52
2023-03-28T10:14:30.262Z,969.5
2023-03-28T10:29:32.046Z,969.42
2023-03-28T10:44:33.713Z,969.23
2023-03-28T10:59:35.358Z,969.12
2023-03-28T11:14:37.090Z,969.14
2023-03-28T11:29:43.589Z,969.2
2023-03-28T11:44:45.901Z,969.15
2023-03-28T11:59:47.768Z,969.07
2023-03-28T12:14:49.440Z,969.02
2023-03-28T12:29:51.102Z,969
2023-03-28T12:44:52.749Z,968.97
2023-03-28T12:59:54.410Z,968.93
2023-03-28T13:14:56.066Z,968.97
2023-03-28T13:29:57.708Z,968.92
2023-03-28T13:44:59.361Z,968.97
2023-03-28T14:00:01.094Z,969.05
2023-03-28T14:15:02.780Z,968.98
2023-03-28T14:30:04.499Z,968.91
2023-03-28T14:45:06.157Z,968.87
2023-03-28T15:00:07.803Z,968.76
2023-03-28T15:15:09.449Z,968.74
2023-03-28T15:30:11.112Z,968.72
2023-03-28T15:45:12.762Z,968.63
2023-03-28T16:00:14.437Z,968.43
2023-03-28T16:15:16.115Z,968.31
2023-03-28T16:30:17.797Z,968.31
2023-03-28T16:45:19.449Z,968.23
2023-03-28T17:00:21.097Z,968.15
2023-03-28T17:15:22.754Z,967.88
2023-03-28T17:30:24.391Z,967.7
2023-03-28T17:45:26.148Z,967.38
2023-03-28T18:00:30.176Z,967.09
2023-03-28T18:15:33.014Z,966.66
2023-03-28T18:30:34.664Z,966.35
2023-03-28T18:45:36.387Z,966.18
2023-03-28T19:00:38.091Z,965.94
2023-03-28T19:15:39.747Z,965.7
2023-03-28T19:30:41.557Z,965.44
2023-03-28T19:45:43.198Z,965.11
2023-03-28T20:00:44.846Z,964.75
2023-03-28T20:15:46.585Z,964.43
2023-03-28T20:30:48.294Z,964.07
2023-03-28T20:45:49.951Z,963.67
2023-03-28T21:00:51.649Z,963.3
2023-03-28T21:15:53.322Z,963.02
2023-03-28T21:30:54.941Z,962.77
2023-03-28T21:45:56.648Z,962.57
2023-03-28T22:00:58.476Z,962.37
2023-03-28T22:31:02.124Z,961.93
2023-03-28T22:46:04.248Z,961.75
2023-03-28T23:01:05.980Z,961.29
2023-03-28T23:16:07.821Z,961.13
2023-03-28T23:31:09.543Z,960.91
2023-03-28T23:46:11.209Z,960.77
